createdAt,value
2018-07-23T00:01:56.517Z,23.76
2018-07-23T00:04:24.770Z,23.74
2018-07-23T00:06:52.989Z,23.73
2018-07-23T00:09:21.205Z,23.71
2018-07-23T00:11:49.421Z,23.69
2018-07-23T00:14:17.633Z,23.66
2018-07-23T00:16:45.900Z,23.62
2018-07-23T00:19:14.158Z,23.58
2018-07-23T00:21:42.377Z,23.56
2018-07-23T00:24:10.692Z,23.54
2018-07-23T00:26:38.921Z,23.51
2018-07-23T00:29:07.584Z,23.51
2018-07-23T00:31:35.828Z,23.48
2018-07-23T00:34:04.037Z,23.45
2018-07-23T00:36:32.255Z,23.43
2018-07-23T00:39:00.472Z,23.42
2018-07-23T00:41:29.418Z,23.38
2018-07-23T00:43:57.656Z,23.34
2018-07-23T00:46:25.928Z,23.32
2018-07-23T00:48:54.160Z,23.29
2018-07-23T00:51:22.374Z,23.27
2018-07-23T00:53:50.596Z,23.26
2018-07-23T00:56:18.816Z,23.24
2018-07-23T00:58:47.038Z,23.24
2018-07-23T01:01:15.370Z,23.21
2018-07-23T01:03:43.576Z,23.20
2018-07-23T01:06:11.800Z,23.17
2018-07-23T01:08:40.053Z,23.15
2018-07-23T01:11:08.274Z,23.12
2018-07-23T01:13:36.496Z,23.09
2018-07-23T01:16:04.746Z,23.07
2018-07-23T01:18:32.961Z,23.06
2018-07-23T01:21:01.176Z,23.05
2018-07-23T01:23:29.413Z,23.05
2018-07-23T01:25:57.644Z,23.07
2018-07-23T01:28:25.860Z,23.07
2018-07-23T01:30:54.072Z,23.06
2018-07-23T01:33:22.305Z,23.06
2018-07-23T01:35:50.541Z,23.05
2018-07-23T01:38:18.996Z,23.04
2018-07-23T01:40:47.205Z,23.04
2018-07-23T01:43:15.424Z,23.04
2018-07-23T01:45:43.637Z,23.06
2018-07-23T01:48:11.925Z,23.05
2018-07-23T01:50:40.182Z,23.06
2018-07-23T01:53:08.400Z,23.04
2018-07-23T01:55:36.608Z,23.01
2018-07-23T01:58:04.858Z,23.00
2018-07-23T02:00:33.109Z,22.95
2018-07-23T02:03:01.359Z,22.93
2018-07-23T02:05:29.557Z,22.89
2018-07-23T02:07:57.786Z,22.86
2018-07-23T02:10:26.025Z,22.84
2018-07-23T02:12:54.257Z,22.82
2018-07-23T02:15:22.496Z,22.78
2018-07-23T02:17:50.717Z,22.75
2018-07-23T02:20:18.961Z,22.70
2018-07-23T02:22:47.165Z,22.69
2018-07-23T02:25:15.392Z,22.68
2018-07-23T02:27:43.605Z,22.71
2018-07-23T02:30:11.833Z,22.72
2018-07-23T02:32:40.116Z,22.73
2018-07-23T02:35:08.324Z,22.72
2018-07-23T02:37:36.584Z,22.66
2018-07-23T02:40:04.841Z,22.62
2018-07-23T02:42:33.061Z,22.59
2018-07-23T02:45:01.305Z,22.55
2018-07-23T02:47:29.561Z,22.48
2018-07-23T02:49:57.773Z,22.45
2018-07-23T02:52:25.993Z,22.42
2018-07-23T02:54:54.217Z,22.37
2018-07-23T02:57:22.436Z,22.33
2018-07-23T02:59:50.797Z,22.30
2018-07-23T03:02:19.037Z,22.27
2018-07-23T03:04:47.245Z,22.26
2018-07-23T03:07:15.459Z,22.26
2018-07-23T03:09:43.862Z,22.26
2018-07-23T03:12:12.079Z,22.25
2018-07-23T03:14:40.317Z,22.24
2018-07-23T03:17:08.544Z,22.23
2018-07-23T03:19:36.837Z,22.23
2018-07-23T03:22:05.073Z,22.25
2018-07-23T03:24:33.289Z,22.25
2018-07-23T03:27:01.505Z,22.25
2018-07-23T03:29:29.760Z,22.24
2018-07-23T03:31:58.048Z,22.20
2018-07-23T03:34:26.360Z,22.16
2018-07-23T03:36:54.603Z,22.13
2018-07-23T03:39:22.820Z,22.08
2018-07-23T03:41:51.069Z,22.08
2018-07-23T03:44:19.308Z,22.08
2018-07-23T03:46:47.529Z,22.07
2018-07-23T03:49:15.868Z,22.04
2018-07-23T03:51:44.105Z,22.00
2018-07-23T03:54:12.337Z,21.96
2018-07-23T03:56:40.572Z,21.92
2018-07-23T03:59:08.817Z,21.90
2018-07-23T04:01:37.044Z,21.89
2018-07-23T04:04:05.269Z,21.93
2018-07-23T04:06:33.523Z,21.97
2018-07-23T04:09:01.725Z,22.03
2018-07-23T04:11:30.061Z,22.07
2018-07-23T04:13:58.306Z,22.06
2018-07-23T04:16:26.521Z,22.02
2018-07-23T04:18:54.761Z,21.98
2018-07-23T04:21:22.977Z,21.95
2018-07-23T04:23:51.189Z,21.96
2018-07-23T04:26:19.421Z,21.99
2018-07-23T04:28:47.643Z,21.98
2018-07-23T04:31:15.864Z,21.97
2018-07-23T04:33:44.101Z,21.97
2018-07-23T04:36:12.317Z,21.97
2018-07-23T04:38:40.538Z,21.99
2018-07-23T04:41:08.749Z,22.01
2018-07-23T04:43:37.091Z,22.01
2018-07-23T04:46:05.624Z,22.04
2018-07-23T04:48:34.424Z,22.06
2018-07-23T04:51:02.666Z,22.08
2018-07-23T04:53:31.300Z,22.12
2018-07-23T04:55:59.912Z,22.17
2018-07-23T04:58:28.124Z,22.20
2018-07-23T05:00:56.454Z,22.23
2018-07-23T05:03:24.789Z,22.25
2018-07-23T05:05:53.020Z,22.29
2018-07-23T05:08:21.240Z,22.30
2018-07-23T05:10:49.508Z,22.30
2018-07-23T05:13:17.740Z,22.31
2018-07-23T05:15:45.953Z,22.34
2018-07-23T05:18:14.160Z,22.37
2018-07-23T05:20:42.381Z,22.40
2018-07-23T05:23:10.600Z,22.40
2018-07-23T05:25:38.837Z,22.39
2018-07-23T05:28:07.956Z,22.40
2018-07-23T05:30:36.262Z,22.42
2018-07-23T05:33:04.493Z,22.43
2018-07-23T05:35:32.713Z,22.44
2018-07-23T05:38:00.948Z,22.46
2018-07-23T05:40:29.213Z,22.49
2018-07-23T05:42:57.445Z,22.50
2018-07-23T05:45:25.681Z,22.54
2018-07-23T05:47:53.908Z,22.58
2018-07-23T05:50:22.124Z,22.62
2018-07-23T05:52:50.370Z,22.68
2018-07-23T05:55:18.692Z,22.71
2018-07-23T05:57:46.984Z,22.73
2018-07-23T06:00:15.196Z,22.79
2018-07-23T06:02:43.421Z,22.90
2018-07-23T06:05:11.665Z,22.93
2018-07-23T06:07:39.964Z,22.92
2018-07-23T06:10:08.215Z,22.91
2018-07-23T06:12:36.452Z,22.89
2018-07-23T06:15:05.481Z,22.88
2018-07-23T06:17:33.737Z,22.90
2018-07-23T06:20:01.950Z,22.96
2018-07-23T06:22:30.173Z,23.04
2018-07-23T06:24:58.433Z,23.01
2018-07-23T06:27:26.674Z,22.95
2018-07-23T06:29:54.992Z,22.91
2018-07-23T06:32:23.153Z,22.85
2018-07-23T06:34:51.382Z,22.81
2018-07-23T06:37:19.608Z,22.81
2018-07-23T06:39:48.041Z,22.78
2018-07-23T06:42:16.292Z,22.80
2018-07-23T06:44:44.545Z,22.83
2018-07-23T06:47:12.905Z,22.85
2018-07-23T06:49:41.132Z,22.85
2018-07-23T06:52:09.367Z,22.87
2018-07-23T06:54:37.613Z,22.85
2018-07-23T06:57:06.134Z,22.84
2018-07-23T06:59:34.749Z,22.86
2018-07-23T07:02:03.009Z,22.90
2018-07-23T07:04:31.225Z,22.96
2018-07-23T07:06:59.469Z,22.95
2018-07-23T07:09:27.697Z,22.88
2018-07-23T07:11:55.965Z,22.84
2018-07-23T07:14:24.192Z,22.78
2018-07-23T07:16:52.425Z,22.79
2018-07-23T07:19:20.677Z,22.86
2018-07-23T07:21:48.916Z,22.91
2018-07-23T07:24:17.136Z,22.96
2018-07-23T07:26:45.776Z,23.01
2018-07-23T07:29:14.369Z,22.98
2018-07-23T07:31:42.604Z,22.89
2018-07-23T07:34:10.849Z,22.83
2018-07-23T07:36:39.071Z,22.81
2018-07-23T07:39:10.433Z,22.78
2018-07-23T07:41:39.025Z,22.79
2018-07-23T07:44:07.677Z,22.78
2018-07-23T07:46:36.040Z,22.85
2018-07-23T07:49:04.432Z,22.93
2018-07-23T07:51:32.653Z,23.00
2018-07-23T07:54:00.864Z,23.07
2018-07-23T07:56:29.136Z,23.12
2018-07-23T07:58:57.357Z,23.11
2018-07-23T08:01:25.593Z,23.13
2018-07-23T08:03:53.809Z,23.22
2018-07-23T08:06:22.017Z,23.30
2018-07-23T08:08:50.380Z,23.35
2018-07-23T08:11:18.610Z,23.37
2018-07-23T08:13:47.101Z,23.42
2018-07-23T08:16:15.505Z,23.39
2018-07-23T08:18:43.773Z,23.39
2018-07-23T08:21:11.989Z,23.43
2018-07-23T08:23:40.276Z,23.46
2018-07-23T08:26:08.509Z,23.53
2018-07-23T08:28:36.732Z,23.55
2018-07-23T08:31:04.989Z,23.59
2018-07-23T08:33:33.217Z,23.65
2018-07-23T08:36:01.509Z,23.73
2018-07-23T08:38:29.769Z,23.78
2018-07-23T08:40:57.993Z,23.83
2018-07-23T08:43:26.217Z,23.90
2018-07-23T08:45:54.433Z,23.91
2018-07-23T08:48:22.684Z,23.92
2018-07-23T08:50:50.908Z,23.91
2018-07-23T08:53:19.145Z,23.95
2018-07-23T08:55:47.388Z,24.00
2018-07-23T08:58:15.620Z,24.02
2018-07-23T09:00:43.861Z,24.05
2018-07-23T09:03:12.228Z,24.08
2018-07-23T09:05:40.522Z,24.14
2018-07-23T09:08:08.720Z,24.17
2018-07-23T09:10:36.940Z,24.19
2018-07-23T09:13:05.182Z,24.27
2018-07-23T09:15:33.460Z,24.34
2018-07-23T09:18:01.717Z,24.37
2018-07-23T09:20:29.949Z,24.42
2018-07-23T09:22:58.176Z,24.46
2018-07-23T09:25:30.560Z,24.52
2018-07-23T09:27:58.797Z,24.57
2018-07-23T09:30:32.297Z,24.62
2018-07-23T09:33:00.541Z,24.63
2018-07-23T09:35:28.780Z,24.61
2018-07-23T09:37:57.041Z,24.62
2018-07-23T09:40:25.267Z,24.64
2018-07-23T09:42:53.498Z,24.76
2018-07-23T09:45:21.720Z,24.81
2018-07-23T09:47:49.977Z,24.89
2018-07-23T09:50:18.220Z,24.96
2018-07-23T09:52:46.508Z,25.05
2018-07-23T09:55:14.713Z,25.14
2018-07-23T09:57:42.945Z,25.19
2018-07-23T10:00:11.152Z,25.20
2018-07-23T10:02:39.368Z,25.22
2018-07-23T10:05:07.596Z,25.19
2018-07-23T10:07:35.842Z,25.18
2018-07-23T10:10:04.139Z,25.23
2018-07-23T10:12:32.354Z,25.32
2018-07-23T10:15:00.590Z,25.43
2018-07-23T10:17:28.796Z,25.43
2018-07-23T10:19:56.992Z,25.54
2018-07-23T10:22:25.209Z,25.61
2018-07-23T10:24:53.412Z,25.66
2018-07-23T10:27:21.641Z,25.69
2018-07-23T10:29:49.848Z,25.71
2018-07-23T10:32:18.068Z,25.87
2018-07-23T10:34:46.275Z,25.91
2018-07-23T10:37:14.534Z,25.95
2018-07-23T10:39:42.757Z,26.03
2018-07-23T10:42:10.975Z,26.15
2018-07-23T10:44:39.209Z,26.31
2018-07-23T10:47:07.421Z,26.44
2018-07-23T10:49:35.664Z,26.59
2018-07-23T10:52:03.884Z,26.82
2018-07-23T10:54:32.097Z,27.08
2018-07-23T10:57:00.385Z,27.21
2018-07-23T10:59:28.593Z,27.28
2018-07-23T11:01:56.880Z,27.39
2018-07-23T11:04:25.097Z,27.38
2018-07-23T11:06:53.304Z,27.34
2018-07-23T11:09:21.578Z,27.30
2018-07-23T11:11:49.786Z,27.31
2018-07-23T11:14:18.017Z,27.34
2018-07-23T11:16:46.244Z,27.49
2018-07-23T11:19:14.496Z,27.77
2018-07-23T11:21:42.723Z,28.07
2018-07-23T11:24:10.929Z,28.33
2018-07-23T11:26:39.247Z,28.52
2018-07-23T11:29:07.417Z,28.48
2018-07-23T11:31:35.629Z,28.32
2018-07-23T11:34:03.826Z,28.32
2018-07-23T11:36:32.058Z,28.24
2018-07-23T11:39:00.413Z,28.16
2018-07-23T11:41:28.688Z,28.04
2018-07-23T11:43:56.865Z,28.09
2018-07-23T11:46:25.314Z,28.30
2018-07-23T11:48:53.324Z,28.30
2018-07-23T11:51:21.536Z,28.25
2018-07-23T11:53:49.761Z,28.11
2018-07-23T11:56:18.013Z,28.05
2018-07-23T11:58:46.280Z,28.10
2018-07-23T12:01:14.513Z,28.32
2018-07-23T12:03:42.728Z,28.63
2018-07-23T12:06:10.961Z,28.92
2018-07-23T12:08:39.176Z,29.26
2018-07-23T12:11:07.425Z,29.47
2018-07-23T12:13:35.734Z,29.38
2018-07-23T12:16:03.952Z,29.35
2018-07-23T12:18:32.184Z,29.39
2018-07-23T12:21:00.441Z,29.33
2018-07-23T12:23:28.731Z,29.25
2018-07-23T12:25:57.000Z,29.25
2018-07-23T12:28:25.232Z,29.26
2018-07-23T12:30:53.482Z,29.43
2018-07-23T12:33:21.717Z,29.63
2018-07-23T12:35:49.941Z,29.91
2018-07-23T12:38:18.309Z,30.16
2018-07-23T12:40:46.529Z,30.30
2018-07-23T12:43:14.751Z,30.37
2018-07-23T12:45:42.981Z,30.37
2018-07-23T12:48:11.241Z,30.52
2018-07-23T12:50:39.511Z,30.61
2018-07-23T12:53:07.761Z,30.70
2018-07-23T12:55:35.985Z,30.68
2018-07-23T12:58:04.204Z,30.75
2018-07-23T13:00:32.412Z,30.86
2018-07-23T13:03:00.721Z,31.06
2018-07-23T13:05:31.941Z,31.30
2018-07-23T13:08:01.520Z,31.49
2018-07-23T13:10:29.760Z,31.58
2018-07-23T13:12:58.001Z,31.61
2018-07-23T13:15:26.269Z,31.59
2018-07-23T13:17:54.565Z,31.66
2018-07-23T13:20:23.268Z,31.61
2018-07-23T13:22:51.508Z,31.58
2018-07-23T13:25:19.887Z,31.49
2018-07-23T13:27:48.100Z,31.51
2018-07-23T13:30:16.341Z,31.69
2018-07-23T13:32:45.821Z,31.85
2018-07-23T13:35:14.362Z,31.99
2018-07-23T13:37:43.220Z,32.14
2018-07-23T13:40:11.446Z,32.31
2018-07-23T13:42:39.663Z,32.29
2018-07-23T13:45:07.977Z,32.26
2018-07-23T13:47:36.242Z,32.25
2018-07-23T13:50:04.554Z,32.29
2018-07-23T13:52:32.769Z,32.25
2018-07-23T13:55:01.017Z,32.14
2018-07-23T13:57:29.253Z,31.99
2018-07-23T13:59:57.476Z,31.70
2018-07-23T14:02:25.717Z,31.63
2018-07-23T14:04:53.951Z,31.62
2018-07-23T14:07:22.205Z,31.55
2018-07-23T14:09:50.436Z,31.55
2018-07-23T14:12:18.856Z,31.50
2018-07-23T14:14:47.080Z,31.24
2018-07-23T14:17:15.353Z,31.10
2018-07-23T14:19:43.800Z,31.02
2018-07-23T14:22:12.053Z,31.05
2018-07-23T14:24:40.353Z,31.17
2018-07-23T14:27:08.560Z,31.30
2018-07-23T14:29:36.856Z,31.46
2018-07-23T14:32:05.097Z,31.63
2018-07-23T14:34:33.327Z,31.74
2018-07-23T14:37:01.606Z,31.82
2018-07-23T14:39:29.844Z,31.81
2018-07-23T14:41:58.078Z,31.92
2018-07-23T14:44:26.349Z,31.93
2018-07-23T14:46:54.621Z,31.86
2018-07-23T14:49:23.045Z,31.81
2018-07-23T14:51:51.262Z,31.71
2018-07-23T14:54:19.505Z,31.62
2018-07-23T14:56:47.780Z,31.63
2018-07-23T14:59:16.087Z,31.52
2018-07-23T15:01:44.342Z,31.46
2018-07-23T15:04:12.581Z,31.50
2018-07-23T15:06:40.809Z,31.55
2018-07-23T15:09:09.988Z,31.44
2018-07-23T15:11:38.268Z,31.32
2018-07-23T15:14:06.553Z,31.26
2018-07-23T15:16:34.944Z,31.17
2018-07-23T15:19:03.165Z,31.04
2018-07-23T15:21:31.392Z,30.90
2018-07-23T15:23:59.613Z,30.92
2018-07-23T15:26:27.886Z,31.12
2018-07-23T15:28:56.123Z,31.37
2018-07-23T15:31:24.340Z,31.63
2018-07-23T15:33:52.588Z,31.78
2018-07-23T15:36:20.853Z,31.78
2018-07-23T15:38:49.102Z,31.76
2018-07-23T15:41:17.317Z,31.63
2018-07-23T15:43:45.566Z,31.46
2018-07-23T15:46:13.822Z,31.39
2018-07-23T15:48:41.992Z,31.31
2018-07-23T15:51:10.285Z,31.17
2018-07-23T15:53:38.540Z,31.05
2018-07-23T15:56:07.036Z,30.97
2018-07-23T15:58:35.293Z,30.84
2018-07-23T16:01:03.568Z,30.77
2018-07-23T16:03:31.893Z,30.70
2018-07-23T16:06:00.128Z,30.65
2018-07-23T16:08:28.369Z,30.82
2018-07-23T16:10:56.632Z,31.41
2018-07-23T16:13:24.844Z,32.07
2018-07-23T16:15:53.092Z,32.72
2018-07-23T16:18:21.349Z,33.08
2018-07-23T16:20:49.560Z,33.19
2018-07-23T16:23:17.827Z,33.04
2018-07-23T16:25:46.042Z,33.26
2018-07-23T16:28:14.333Z,33.66
2018-07-23T16:30:42.729Z,33.85
2018-07-23T16:33:10.957Z,33.26
2018-07-23T16:35:39.184Z,32.55
2018-07-23T16:38:07.461Z,31.99
2018-07-23T16:40:35.707Z,31.57
2018-07-23T16:43:04.001Z,31.34
2018-07-23T16:45:32.341Z,31.32
2018-07-23T16:48:00.550Z,31.73
2018-07-23T16:50:28.805Z,32.37
2018-07-23T16:52:57.032Z,32.83
2018-07-23T16:55:25.249Z,32.70
2018-07-23T16:57:53.466Z,32.14
2018-07-23T17:00:21.681Z,31.59
2018-07-23T17:02:49.925Z,31.10
2018-07-23T17:05:18.148Z,30.78
2018-07-23T17:07:46.384Z,30.52
2018-07-23T17:10:14.593Z,30.33
2018-07-23T17:12:42.825Z,30.21
2018-07-23T17:15:11.105Z,30.13
2018-07-23T17:17:39.316Z,30.10
2018-07-23T17:20:07.677Z,30.05
2018-07-23T17:22:36.105Z,30.06
2018-07-23T17:25:04.393Z,30.11
2018-07-23T17:27:32.629Z,30.25
2018-07-23T17:30:00.860Z,30.34
2018-07-23T17:32:29.104Z,30.41
2018-07-23T17:34:57.344Z,30.39
2018-07-23T17:37:25.580Z,30.31
2018-07-23T17:39:53.793Z,30.24
2018-07-23T17:42:22.008Z,30.14
2018-07-23T17:44:50.321Z,30.02
2018-07-23T17:47:18.476Z,29.92
2018-07-23T17:49:46.710Z,29.82
2018-07-23T17:52:14.920Z,29.73
2018-07-23T17:54:43.160Z,29.70
2018-07-23T17:57:11.416Z,29.65
2018-07-23T17:59:39.704Z,29.60
2018-07-23T18:02:07.952Z,29.53
2018-07-23T18:04:36.245Z,29.46
2018-07-23T18:07:04.744Z,29.41
2018-07-23T18:09:32.960Z,29.35
2018-07-23T18:12:01.228Z,29.33
2018-07-23T18:14:29.458Z,29.37
2018-07-23T18:16:57.676Z,29.35
2018-07-23T18:19:25.980Z,29.33
2018-07-23T18:21:54.220Z,29.29
2018-07-23T18:24:22.460Z,29.24
2018-07-23T18:26:50.668Z,29.20
2018-07-23T18:29:18.953Z,29.15
2018-07-23T18:31:47.219Z,29.13
2018-07-23T18:34:15.462Z,29.08
2018-07-23T18:36:43.766Z,28.99
2018-07-23T18:39:12.993Z,28.93
2018-07-23T18:41:41.928Z,28.84
2018-07-23T18:44:10.389Z,28.79
2018-07-23T18:46:38.645Z,28.74
2018-07-23T18:49:20.697Z,28.68
2018-07-23T18:51:51.061Z,28.60
2018-07-23T18:54:20.949Z,28.52
2018-07-23T18:56:51.404Z,28.44
2018-07-23T18:59:19.604Z,28.37
2018-07-23T19:01:48.896Z,28.31
2018-07-23T19:04:17.165Z,28.25
2018-07-23T19:06:45.476Z,28.20
2018-07-23T19:09:14.925Z,28.12
2018-07-23T19:11:45.133Z,28.05
2018-07-23T19:14:14.133Z,28.00
2018-07-23T19:16:42.753Z,27.95
2018-07-23T19:19:11.089Z,27.89
2018-07-23T19:21:39.368Z,27.83
2018-07-23T19:24:07.637Z,27.78
2018-07-23T19:26:35.893Z,27.71
2018-07-23T19:29:04.115Z,27.67
2018-07-23T19:31:32.386Z,27.61
2018-07-23T19:34:01.929Z,27.56
2018-07-23T19:36:30.465Z,27.49
2018-07-23T19:38:59.069Z,27.44
2018-07-23T19:41:27.873Z,27.38
2018-07-23T19:43:56.085Z,27.35
2018-07-23T19:46:24.452Z,27.21
2018-07-23T19:48:52.780Z,27.23
2018-07-23T19:51:21.012Z,27.18
2018-07-23T19:53:49.273Z,27.14
2018-07-23T19:56:17.501Z,27.11
2018-07-23T19:58:45.765Z,27.07
2018-07-23T20:01:14.018Z,27.06
2018-07-23T20:03:42.233Z,27.07
2018-07-23T20:06:10.470Z,27.06
2018-07-23T20:08:38.772Z,27.04
2018-07-23T20:11:07.372Z,27.01
2018-07-23T20:13:35.577Z,27.00
2018-07-23T20:16:03.853Z,26.92
2018-07-23T20:18:32.085Z,26.88
2018-07-23T20:21:00.351Z,26.84
2018-07-23T20:23:28.614Z,26.82
2018-07-23T20:25:56.951Z,26.80
2018-07-23T20:28:25.189Z,26.76
2018-07-23T20:30:53.412Z,26.69
2018-07-23T20:33:21.628Z,26.62
2018-07-23T20:35:49.892Z,26.56
2018-07-23T20:38:18.134Z,26.50
2018-07-23T20:40:46.357Z,26.47
2018-07-23T20:43:14.573Z,26.43
2018-07-23T20:45:42.839Z,26.38
2018-07-23T20:48:11.124Z,26.33
2018-07-23T20:50:39.347Z,26.26
2018-07-23T20:53:07.625Z,26.21
2018-07-23T20:55:35.853Z,26.21
2018-07-23T20:58:04.109Z,26.22
2018-07-23T21:00:32.389Z,26.25
2018-07-23T21:03:00.649Z,26.29
2018-07-23T21:05:28.861Z,26.30
2018-07-23T21:07:57.376Z,26.28
2018-07-23T21:10:25.605Z,26.24
2018-07-23T21:12:53.899Z,26.08
2018-07-23T21:15:22.113Z,26.11
2018-07-23T21:17:50.424Z,26.05
2018-07-23T21:20:18.673Z,25.90
2018-07-23T21:22:46.884Z,25.92
2018-07-23T21:25:15.177Z,25.93
2018-07-23T21:27:43.394Z,25.96
2018-07-23T21:30:11.597Z,25.94
2018-07-23T21:32:39.865Z,25.97
2018-07-23T21:35:08.099Z,26.00
2018-07-23T21:37:36.349Z,25.99
2018-07-23T21:40:05.041Z,25.99
2018-07-23T21:42:33.273Z,25.96
2018-07-23T21:45:01.534Z,25.90
2018-07-23T21:47:29.789Z,25.84
2018-07-23T21:49:58.074Z,25.80
2018-07-23T21:52:26.381Z,25.79
2018-07-23T21:54:54.605Z,25.78
2018-07-23T21:57:22.813Z,25.74
2018-07-23T21:59:51.213Z,25.70
2018-07-23T22:02:19.453Z,25.65
2018-07-23T22:04:47.700Z,25.62
2018-07-23T22:07:15.936Z,25.56
2018-07-23T22:09:44.281Z,25.53
2018-07-23T22:12:12.496Z,25.50
2018-07-23T22:14:40.708Z,25.51
2018-07-23T22:17:08.985Z,25.49
2018-07-23T22:19:37.209Z,25.48
2018-07-23T22:22:05.473Z,25.48
2018-07-23T22:24:33.680Z,25.48
2018-07-23T22:27:02.037Z,25.48
2018-07-23T22:29:30.301Z,25.47
2018-07-23T22:31:58.524Z,25.45
2018-07-23T22:34:26.744Z,25.42
2018-07-23T22:36:55.092Z,25.39
2018-07-23T22:39:23.348Z,25.32
2018-07-23T22:41:51.557Z,25.26
2018-07-23T22:44:19.812Z,25.24
2018-07-23T22:46:48.013Z,25.14
2018-07-23T22:49:16.280Z,25.19
2018-07-23T22:51:44.492Z,25.18
2018-07-23T22:54:12.752Z,25.18
2018-07-23T22:56:41.014Z,25.16
2018-07-23T22:59:09.232Z,25.16
2018-07-23T23:01:37.461Z,25.12
2018-07-23T23:04:05.725Z,25.11
2018-07-23T23:06:33.941Z,25.10
2018-07-23T23:09:02.173Z,25.11
2018-07-23T23:11:30.377Z,25.08
2018-07-23T23:13:58.597Z,25.09
2018-07-23T23:16:26.818Z,25.08
2018-07-23T23:18:55.037Z,25.06
2018-07-23T23:21:23.261Z,25.02
2018-07-23T23:23:51.485Z,24.94
2018-07-23T23:26:19.797Z,24.89
2018-07-23T23:28:48.041Z,24.83
2018-07-23T23:31:16.268Z,24.78
2018-07-23T23:33:44.500Z,24.79
2018-07-23T23:36:12.726Z,24.78
2018-07-23T23:38:40.997Z,24.79
2018-07-23T23:41:09.237Z,24.79
2018-07-23T23:43:37.472Z,24.78
2018-07-23T23:46:05.694Z,24.73
2018-07-23T23:48:33.924Z,24.63
2018-07-23T23:51:02.173Z,24.60
2018-07-23T23:53:30.413Z,24.57
2018-07-23T23:55:58.665Z,24.56
2018-07-23T23:58:26.993Z,24.52
